sensor_id;sensor_type;location;lat;lon;timestamp;P1;durP1;ratioP1;P2;durP2;ratioP2
23088;SDS011;11713;48.506;8.966;2022-08-05T00:01:43;4.47;;;3.10;;
23088;SDS011;11713;48.506;8.966;2022-08-05T00:04:09;3.35;;;2.90;;
23088;SDS011;11713;48.506;8.966;2022-08-05T00:06:35;3.72;;;3.10;;
23088;SDS011;11713;48.506;8.966;2022-08-05T00:09:01;2.95;;;2.72;;
23088;SDS011;11713;48.506;8.966;2022-08-05T00:11:28;5.18;;;3.13;;
23088;SDS011;11713;48.506;8.966;2022-08-05T00:13:54;4.93;;;3.25;;
23088;SDS011;11713;48.506;8.966;2022-08-05T00:16:21;4.55;;;3.03;;
23088;SDS011;11713;48.506;8.966;2022-08-05T00:18:49;3.05;;;2.83;;
23088;SDS011;11713;48.506;8.966;2022-08-05T00:21:15;3.72;;;3.33;;
23088;SDS011;11713;48.506;8.966;2022-08-05T00:23:43;5.18;;;3.53;;
23088;SDS011;11713;48.506;8.966;2022-08-05T00:26:09;4.68;;;2.97;;
23088;SDS011;11713;48.506;8.966;2022-08-05T00:28:36;3.33;;;3.03;;
23088;SDS011;11713;48.506;8.966;2022-08-05T00:31:02;5.20;;;2.85;;
23088;SDS011;11713;48.506;8.966;2022-08-05T00:33:29;3.83;;;2.95;;
23088;SDS011;11713;48.506;8.966;2022-08-05T00:35:55;4.72;;;2.92;;
23088;SDS011;11713;48.506;8.966;2022-08-05T00:38:21;3.92;;;2.83;;
23088;SDS011;11713;48.506;8.966;2022-08-05T00:40:48;3.55;;;3.05;;
23088;SDS011;11713;48.506;8.966;2022-08-05T00:43:16;3.67;;;2.92;;
23088;SDS011;11713;48.506;8.966;2022-08-05T00:45:43;3.50;;;3.00;;
23088;SDS011;11713;48.506;8.966;2022-08-05T00:48:10;3.42;;;2.90;;
23088;SDS011;11713;48.506;8.966;2022-08-05T00:50:38;4.35;;;3.08;;
23088;SDS011;11713;48.506;8.966;2022-08-05T00:53:05;4.50;;;2.80;;
23088;SDS011;11713;48.506;8.966;2022-08-05T00:55:43;4.65;;;3.03;;
23088;SDS011;11713;48.506;8.966;2022-08-05T00:58:10;5.55;;;2.95;;
23088;SDS011;11713;48.506;8.966;2022-08-05T01:00:36;3.22;;;2.92;;
23088;SDS011;11713;48.506;8.966;2022-08-05T01:03:03;3.95;;;2.90;;
23088;SDS011;11713;48.506;8.966;2022-08-05T01:05:29;3.65;;;2.83;;
23088;SDS011;11713;48.506;8.966;2022-08-05T01:07:55;3.90;;;3.20;;
23088;SDS011;11713;48.506;8.966;2022-08-05T01:12:57;3.33;;;3.03;;
23088;SDS011;11713;48.506;8.966;2022-08-05T01:15:31;3.97;;;3.10;;
23088;SDS011;11713;48.506;8.966;2022-08-05T01:18:04;2.92;;;2.72;;
23088;SDS011;11713;48.506;8.966;2022-08-05T01:20:51;5.25;;;3.00;;
23088;SDS011;11713;48.506;8.966;2022-08-05T01:24:00;5.45;;;3.22;;
23088;SDS011;11713;48.506;8.966;2022-08-05T01:29:49;4.50;;;3.63;;
23088;SDS011;11713;48.506;8.966;2022-08-05T01:32:21;4.80;;;3.90;;
23088;SDS011;11713;48.506;8.966;2022-08-05T01:37:42;3.63;;;3.33;;
23088;SDS011;11713;48.506;8.966;2022-08-05T01:40:08;4.30;;;3.65;;
23088;SDS011;11713;48.506;8.966;2022-08-05T01:42:35;4.28;;;3.88;;
23088;SDS011;11713;48.506;8.966;2022-08-05T01:45:03;4.15;;;3.80;;
23088;SDS011;11713;48.506;8.966;2022-08-05T01:47:32;4.05;;;3.33;;
23088;SDS011;11713;48.506;8.966;2022-08-05T01:50:00;4.93;;;3.53;;
23088;SDS011;11713;48.506;8.966;2022-08-05T01:52:29;4.40;;;3.63;;
23088;SDS011;11713;48.506;8.966;2022-08-05T01:54:57;3.70;;;3.40;;
23088;SDS011;11713;48.506;8.966;2022-08-05T01:57:27;4.45;;;3.53;;
23088;SDS011;11713;48.506;8.966;2022-08-05T01:59:58;4.00;;;3.33;;
23088;SDS011;11713;48.506;8.966;2022-08-05T02:02:29;4.10;;;3.30;;
23088;SDS011;11713;48.506;8.966;2022-08-05T02:04:57;4.47;;;3.10;;
23088;SDS011;11713;48.506;8.966;2022-08-05T02:07:25;4.47;;;3.50;;
23088;SDS011;11713;48.506;8.966;2022-08-05T02:09:52;4.28;;;3.30;;
23088;SDS011;11713;48.506;8.966;2022-08-05T02:15:35;4.15;;;3.80;;
23088;SDS011;11713;48.506;8.966;2022-08-05T02:18:17;4.53;;;3.58;;
23088;SDS011;11713;48.506;8.966;2022-08-05T02:20:51;3.80;;;3.47;;
23088;SDS011;11713;48.506;8.966;2022-08-05T02:23:23;4.35;;;3.83;;
23088;SDS011;11713;48.506;8.966;2022-08-05T02:25:55;4.50;;;3.83;;
23088;SDS011;11713;48.506;8.966;2022-08-05T02:28:26;4.53;;;3.95;;
23088;SDS011;11713;48.506;8.966;2022-08-05T02:30:59;5.28;;;3.58;;
23088;SDS011;11713;48.506;8.966;2022-08-05T02:33:34;3.92;;;3.45;;
23088;SDS011;11713;48.506;8.966;2022-08-05T02:36:04;4.65;;;3.38;;
23088;SDS011;11713;48.506;8.966;2022-08-05T02:38:35;4.47;;;3.38;;
23088;SDS011;11713;48.506;8.966;2022-08-05T02:41:03;5.13;;;3.38;;
23088;SDS011;11713;48.506;8.966;2022-08-05T02:43:32;4.95;;;3.90;;
23088;SDS011;11713;48.506;8.966;2022-08-05T02:45:58;3.92;;;3.30;;
23088;SDS011;11713;48.506;8.966;2022-08-05T02:48:25;4.80;;;3.58;;
23088;SDS011;11713;48.506;8.966;2022-08-05T02:50:52;4.22;;;3.75;;
23088;SDS011;11713;48.506;8.966;2022-08-05T02:53:19;4.70;;;3.35;;
23088;SDS011;11713;48.506;8.966;2022-08-05T02:55:49;3.55;;;3.25;;
23088;SDS011;11713;48.506;8.966;2022-08-05T02:58:17;4.50;;;3.55;;
23088;SDS011;11713;48.506;8.966;2022-08-05T03:00:45;5.65;;;3.30;;
23088;SDS011;11713;48.506;8.966;2022-08-05T03:03:13;4.65;;;3.50;;
23088;SDS011;11713;48.506;8.966;2022-08-05T03:05:43;4.03;;;3.63;;
23088;SDS011;11713;48.506;8.966;2022-08-05T03:08:11;4.18;;;3.28;;
23088;SDS011;11713;48.506;8.966;2022-08-05T03:10:44;3.40;;;3.10;;
23088;SDS011;11713;48.506;8.966;2022-08-05T03:13:11;4.05;;;3.20;;
23088;SDS011;11713;48.506;8.966;2022-08-05T03:15:45;5.32;;;3.25;;
23088;SDS011;11713;48.506;8.966;2022-08-05T03:18:12;4.25;;;3.80;;
23088;SDS011;11713;48.506;8.966;2022-08-05T03:20:38;7.30;;;3.45;;
23088;SDS011;11713;48.506;8.966;2022-08-05T03:23:06;4.10;;;3.47;;
23088;SDS011;11713;48.506;8.966;2022-08-05T03:25:34;5.28;;;3.40;;
23088;SDS011;11713;48.506;8.966;2022-08-05T03:28:02;3.67;;;2.92;;
23088;SDS011;11713;48.506;8.966;2022-08-05T03:30:29;4.93;;;3.45;;
23088;SDS011;11713;48.506;8.966;2022-08-05T03:33:02;3.67;;;3.33;;
23088;SDS011;11713;48.506;8.966;2022-08-05T03:35:30;4.18;;;3.45;;
23088;SDS011;11713;48.506;8.966;2022-08-05T03:38:00;4.65;;;3.25;;
23088;SDS011;11713;48.506;8.966;2022-08-05T03:40:27;3.53;;;3.22;;
23088;SDS011;11713;48.506;8.966;2022-08-05T03:42:53;3.83;;;3.35;;
23088;SDS011;11713;48.506;8.966;2022-08-05T03:45:19;5.18;;;3.50;;
23088;SDS011;11713;48.506;8.966;2022-08-05T03:47:45;3.95;;;3.33;;
23088;SDS011;11713;48.506;8.966;2022-08-05T03:50:11;5.00;;;3.40;;
23088;SDS011;11713;48.506;8.966;2022-08-05T03:52:43;4.60;;;3.40;;
23088;SDS011;11713;48.506;8.966;2022-08-05T03:55:33;4.57;;;3.30;;
23088;SDS011;11713;48.506;8.966;2022-08-05T03:58:04;3.97;;;3.45;;
23088;SDS011;11713;48.506;8.966;2022-08-05T04:03:04;4.78;;;3.30;;
23088;SDS011;11713;48.506;8.966;2022-08-05T04:05:32;3.40;;;3.10;;
23088;SDS011;11713;48.506;8.966;2022-08-05T04:08:03;3.40;;;3.13;;
23088;SDS011;11713;48.506;8.966;2022-08-05T04:10:31;4.18;;;3.85;;
23088;SDS011;11713;48.506;8.966;2022-08-05T04:13:09;6.40;;;3.38;;
23088;SDS011;11713;48.506;8.966;2022-08-05T04:15:35;5.15;;;3.92;;
23088;SDS011;11713;48.506;8.966;2022-08-05T04:18:04;5.30;;;3.63;;
23088;SDS011;11713;48.506;8.966;2022-08-05T04:20:31;5.68;;;3.50;;
23088;SDS011;11713;48.506;8.966;2022-08-05T04:22:57;4.03;;;3.58;;
23088;SDS011;11713;48.506;8.966;2022-08-05T04:25:22;3.60;;;3.30;;
23088;SDS011;11713;48.506;8.966;2022-08-05T04:27:48;4.10;;;3.22;;
23088;SDS011;11713;48.506;8.966;2022-08-05T04:30:14;3.80;;;3.40;;
23088;SDS011;11713;48.506;8.966;2022-08-05T04:32:40;4.85;;;3.30;;
23088;SDS011;11713;48.506;8.966;2022-08-05T04:35:06;7.05;;;3.50;;
23088;SDS011;11713;48.506;8.966;2022-08-05T04:37:32;8.23;;;3.50;;
23088;SDS011;11713;48.506;8.966;2022-08-05T04:39:58;4.40;;;3.65;;
23088;SDS011;11713;48.506;8.966;2022-08-05T04:42:37;5.15;;;3.70;;
23088;SDS011;11713;48.506;8.966;2022-08-05T04:45:04;5.00;;;3.60;;
23088;SDS011;11713;48.506;8.966;2022-08-05T04:47:33;5.45;;;3.75;;
23088;SDS011;11713;48.506;8.966;2022-08-05T04:49:59;6.45;;;4.20;;
23088;SDS011;11713;48.506;8.966;2022-08-05T04:52:25;3.78;;;3.47;;
23088;SDS011;11713;48.506;8.966;2022-08-05T04:54:51;5.40;;;3.58;;
23088;SDS011;11713;48.506;8.966;2022-08-05T04:57:17;3.90;;;3.60;;
23088;SDS011;11713;48.506;8.966;2022-08-05T05:02:29;4.30;;;3.85;;
23088;SDS011;11713;48.506;8.966;2022-08-05T05:04:55;4.28;;;3.53;;
23088;SDS011;11713;48.506;8.966;2022-08-05T05:07:21;4.55;;;3.65;;
23088;SDS011;11713;48.506;8.966;2022-08-05T05:09:47;6.75;;;3.53;;
23088;SDS011;11713;48.506;8.966;2022-08-05T05:12:13;4.25;;;3.70;;
23088;SDS011;11713;48.506;8.966;2022-08-05T05:14:39;5.53;;;3.83;;
23088;SDS011;11713;48.506;8.966;2022-08-05T05:17:05;4.72;;;3.30;;
23088;SDS011;11713;48.506;8.966;2022-08-05T05:20:06;4.03;;;3.63;;
23088;SDS011;11713;48.506;8.966;2022-08-05T05:22:33;4.38;;;3.97;;
23088;SDS011;11713;48.506;8.966;2022-08-05T05:24:59;4.03;;;3.63;;
23088;SDS011;11713;48.506;8.966;2022-08-05T05:27:28;6.47;;;3.40;;
23088;SDS011;11713;48.506;8.966;2022-08-05T05:29:55;5.55;;;4.05;;
23088;SDS011;11713;48.506;8.966;2022-08-05T05:32:21;3.92;;;3.30;;
23088;SDS011;11713;48.506;8.966;2022-08-05T05:34:46;7.70;;;3.72;;
23088;SDS011;11713;48.506;8.966;2022-08-05T05:37:12;5.22;;;3.53;;
23088;SDS011;11713;48.506;8.966;2022-08-05T05:39:39;4.97;;;3.17;;
23088;SDS011;11713;48.506;8.966;2022-08-05T05:42:05;4.82;;;3.67;;
23088;SDS011;11713;48.506;8.966;2022-08-05T05:44:31;6.40;;;3.67;;
23088;SDS011;11713;48.506;8.966;2022-08-05T05:46:57;4.93;;;3.38;;
23088;SDS011;11713;48.506;8.966;2022-08-05T05:49:22;4.65;;;3.35;;
23088;SDS011;11713;48.506;8.966;2022-08-05T05:51:48;5.25;;;3.28;;
23088;SDS011;11713;48.506;8.966;2022-08-05T05:54:14;4.63;;;3.55;;
23088;SDS011;11713;48.506;8.966;2022-08-05T05:56:40;3.92;;;3.53;;
23088;SDS011;11713;48.506;8.966;2022-08-05T06:02:23;7.40;;;3.85;;
23088;SDS011;11713;48.506;8.966;2022-08-05T06:04:49;4.20;;;3.80;;
23088;SDS011;11713;48.506;8.966;2022-08-05T06:07:15;7.55;;;3.80;;
23088;SDS011;11713;48.506;8.966;2022-08-05T06:09:41;3.67;;;3.38;;
23088;SDS011;11713;48.506;8.966;2022-08-05T06:12:07;4.10;;;3.58;;
23088;SDS011;11713;48.506;8.966;2022-08-05T06:14:33;4.45;;;3.40;;
23088;SDS011;11713;48.506;8.966;2022-08-05T06:16:59;5.78;;;3.65;;
23088;SDS011;11713;48.506;8.966;2022-08-05T06:19:28;4.20;;;3.53;;
23088;SDS011;11713;48.506;8.966;2022-08-05T06:21:54;5.80;;;4.20;;
23088;SDS011;11713;48.506;8.966;2022-08-05T06:24:20;4.93;;;3.35;;
23088;SDS011;11713;48.506;8.966;2022-08-05T06:26:46;3.70;;;3.40;;
23088;SDS011;11713;48.506;8.966;2022-08-05T06:29:12;4.43;;;3.65;;
23088;SDS011;11713;48.506;8.966;2022-08-05T06:31:38;5.60;;;3.90;;
23088;SDS011;11713;48.506;8.966;2022-08-05T06:34:04;6.03;;;3.88;;
23088;SDS011;11713;48.506;8.966;2022-08-05T06:36:30;6.00;;;3.60;;
23088;SDS011;11713;48.506;8.966;2022-08-05T06:38:56;4.40;;;3.97;;
23088;SDS011;11713;48.506;8.966;2022-08-05T06:41:22;7.13;;;3.83;;
23088;SDS011;11713;48.506;8.966;2022-08-05T06:43:48;4.22;;;3.67;;
23088;SDS011;11713;48.506;8.966;2022-08-05T06:46:14;4.15;;;3.35;;
23088;SDS011;11713;48.506;8.966;2022-08-05T06:48:40;3.45;;;3.15;;
23088;SDS011;11713;48.506;8.966;2022-08-05T06:51:06;4.88;;;3.15;;
23088;SDS011;11713;48.506;8.966;2022-08-05T06:53:32;5.90;;;3.65;;
23088;SDS011;11713;48.506;8.966;2022-08-05T06:55:59;6.50;;;3.60;;
23088;SDS011;11713;48.506;8.966;2022-08-05T06:58:27;5.50;;;3.72;;
23088;SDS011;11713;48.506;8.966;2022-08-05T07:00:59;4.60;;;3.63;;
23088;SDS011;11713;48.506;8.966;2022-08-05T07:03:26;4.95;;;3.38;;
23088;SDS011;11713;48.506;8.966;2022-08-05T07:05:53;7.72;;;3.70;;
23088;SDS011;11713;48.506;8.966;2022-08-05T07:08:19;4.97;;;3.55;;
23088;SDS011;11713;48.506;8.966;2022-08-05T07:10:46;3.38;;;3.08;;
23088;SDS011;11713;48.506;8.966;2022-08-05T07:13:13;4.30;;;2.70;;
23088;SDS011;11713;48.506;8.966;2022-08-05T07:15:57;5.85;;;2.97;;
23088;SDS011;11713;48.506;8.966;2022-08-05T07:18:41;4.53;;;3.05;;
23088;SDS011;11713;48.506;8.966;2022-08-05T07:21:07;3.05;;;2.70;;
23088;SDS011;11713;48.506;8.966;2022-08-05T07:23:33;2.75;;;2.55;;
23088;SDS011;11713;48.506;8.966;2022-08-05T07:25:59;5.53;;;2.90;;
23088;SDS011;11713;48.506;8.966;2022-08-05T07:28:25;5.10;;;2.67;;
23088;SDS011;11713;48.506;8.966;2022-08-05T07:30:51;4.05;;;2.50;;
23088;SDS011;11713;48.506;8.966;2022-08-05T07:33:17;3.63;;;2.53;;
23088;SDS011;11713;48.506;8.966;2022-08-05T07:35:45;4.70;;;2.95;;
23088;SDS011;11713;48.506;8.966;2022-08-05T07:38:12;2.83;;;2.63;;
23088;SDS011;11713;48.506;8.966;2022-08-05T07:40:39;4.43;;;2.50;;
23088;SDS011;11713;48.506;8.966;2022-08-05T07:43:05;5.55;;;2.50;;
23088;SDS011;11713;48.506;8.966;2022-08-05T07:45:31;3.10;;;2.08;;
23088;SDS011;11713;48.506;8.966;2022-08-05T07:47:57;2.75;;;2.30;;
23088;SDS011;11713;48.506;8.966;2022-08-05T07:50:23;3.75;;;2.20;;
23088;SDS011;11713;48.506;8.966;2022-08-05T07:52:49;2.58;;;2.15;;
23088;SDS011;11713;48.506;8.966;2022-08-05T07:55:16;3.42;;;2.10;;
23088;SDS011;11713;48.506;8.966;2022-08-05T07:57:43;2.17;;;1.98;;
23088;SDS011;11713;48.506;8.966;2022-08-05T08:00:09;2.65;;;1.88;;
23088;SDS011;11713;48.506;8.966;2022-08-05T08:02:38;2.10;;;2.00;;
23088;SDS011;11713;48.506;8.966;2022-08-05T08:05:04;1.95;;;1.85;;
23088;SDS011;11713;48.506;8.966;2022-08-05T08:07:30;1.90;;;1.70;;
23088;SDS011;11713;48.506;8.966;2022-08-05T08:09:56;2.63;;;2.05;;
23088;SDS011;11713;48.506;8.966;2022-08-05T08:12:22;2.75;;;1.80;;
23088;SDS011;11713;48.506;8.966;2022-08-05T08:14:48;3.38;;;2.00;;
23088;SDS011;11713;48.506;8.966;2022-08-05T08:17:14;3.30;;;1.98;;
23088;SDS011;11713;48.506;8.966;2022-08-05T08:19:40;2.03;;;1.85;;
23088;SDS011;11713;48.506;8.966;2022-08-05T08:22:07;3.28;;;1.88;;
23088;SDS011;11713;48.506;8.966;2022-08-05T08:24:33;1.83;;;1.70;;
23088;SDS011;11713;48.506;8.966;2022-08-05T08:27:00;3.42;;;1.90;;
23088;SDS011;11713;48.506;8.966;2022-08-05T08:29:26;2.03;;;1.83;;
23088;SDS011;11713;48.506;8.966;2022-08-05T08:31:52;3.67;;;1.90;;
23088;SDS011;11713;48.506;8.966;2022-08-05T08:34:19;2.72;;;2.10;;
23088;SDS011;11713;48.506;8.966;2022-08-05T08:36:48;2.03;;;1.92;;
23088;SDS011;11713;48.506;8.966;2022-08-05T08:39:13;2.13;;;1.92;;
23088;SDS011;11713;48.506;8.966;2022-08-05T08:41:48;2.60;;;1.80;;
23088;SDS011;11713;48.506;8.966;2022-08-05T08:44:17;2.08;;;1.88;;
23088;SDS011;11713;48.506;8.966;2022-08-05T08:46:46;2.58;;;1.90;;
23088;SDS011;11713;48.506;8.966;2022-08-05T08:49:13;2.15;;;1.95;;
23088;SDS011;11713;48.506;8.966;2022-08-05T08:51:40;2.28;;;1.85;;
23088;SDS011;11713;48.506;8.966;2022-08-05T08:54:10;2.45;;;2.03;;
23088;SDS011;11713;48.506;8.966;2022-08-05T08:56:39;2.50;;;2.00;;
23088;SDS011;11713;48.506;8.966;2022-08-05T08:59:06;2.80;;;2.10;;
23088;SDS011;11713;48.506;8.966;2022-08-05T09:01:33;2.67;;;1.90;;
23088;SDS011;11713;48.506;8.966;2022-08-05T09:03:59;3.22;;;2.13;;
23088;SDS011;11713;48.506;8.966;2022-08-05T09:06:27;2.45;;;2.15;;
23088;SDS011;11713;48.506;8.966;2022-08-05T09:08:55;2.05;;;1.90;;
23088;SDS011;11713;48.506;8.966;2022-08-05T09:11:26;2.75;;;1.90;;
23088;SDS011;11713;48.506;8.966;2022-08-05T09:13:54;2.00;;;1.80;;
23088;SDS011;11713;48.506;8.966;2022-08-05T09:16:21;1.92;;;1.83;;
23088;SDS011;11713;48.506;8.966;2022-08-05T09:18:47;2.10;;;1.90;;
23088;SDS011;11713;48.506;8.966;2022-08-05T09:21:13;2.00;;;1.90;;
23088;SDS011;11713;48.506;8.966;2022-08-05T09:23:39;2.15;;;1.95;;
23088;SDS011;11713;48.506;8.966;2022-08-05T09:26:08;2.08;;;1.90;;
23088;SDS011;11713;48.506;8.966;2022-08-05T09:28:37;2.47;;;2.05;;
23088;SDS011;11713;48.506;8.966;2022-08-05T09:31:08;2.75;;;1.77;;
23088;SDS011;11713;48.506;8.966;2022-08-05T09:33:52;2.20;;;2.00;;
23088;SDS011;11713;48.506;8.966;2022-08-05T09:36:19;2.92;;;2.30;;
23088;SDS011;11713;48.506;8.966;2022-08-05T09:38:58;2.30;;;2.00;;
23088;SDS011;11713;48.506;8.966;2022-08-05T09:41:26;2.28;;;2.10;;
23088;SDS011;11713;48.506;8.966;2022-08-05T09:43:53;2.65;;;2.20;;
23088;SDS011;11713;48.506;8.966;2022-08-05T09:46:27;3.05;;;2.30;;
23088;SDS011;11713;48.506;8.966;2022-08-05T09:48:59;2.67;;;2.30;;
23088;SDS011;11713;48.506;8.966;2022-08-05T09:54:02;2.17;;;2.08;;
23088;SDS011;11713;48.506;8.966;2022-08-05T09:56:31;3.15;;;2.25;;
23088;SDS011;11713;48.506;8.966;2022-08-05T09:59:00;3.05;;;2.00;;
23088;SDS011;11713;48.506;8.966;2022-08-05T10:01:30;3.15;;;2.13;;
23088;SDS011;11713;48.506;8.966;2022-08-05T10:04:07;2.55;;;2.10;;
23088;SDS011;11713;48.506;8.966;2022-08-05T10:06:41;4.30;;;2.55;;
23088;SDS011;11713;48.506;8.966;2022-08-05T10:09:19;2.20;;;1.98;;
23088;SDS011;11713;48.506;8.966;2022-08-05T10:11:48;2.30;;;2.10;;
23088;SDS011;11713;48.506;8.966;2022-08-05T10:14:25;2.28;;;2.08;;
23088;SDS011;11713;48.506;8.966;2022-08-05T10:16:53;2.75;;;2.40;;
23088;SDS011;11713;48.506;8.966;2022-08-05T10:19:23;2.42;;;2.10;;
23088;SDS011;11713;48.506;8.966;2022-08-05T10:21:50;3.92;;;2.20;;
23088;SDS011;11713;48.506;8.966;2022-08-05T10:24:16;3.53;;;2.10;;
23088;SDS011;11713;48.506;8.966;2022-08-05T10:26:44;2.25;;;2.08;;
23088;SDS011;11713;48.506;8.966;2022-08-05T10:29:12;2.20;;;2.00;;
23088;SDS011;11713;48.506;8.966;2022-08-05T10:31:38;2.17;;;2.05;;
23088;SDS011;11713;48.506;8.966;2022-08-05T10:34:04;2.80;;;2.20;;
23088;SDS011;11713;48.506;8.966;2022-08-05T10:36:31;3.45;;;2.22;;
23088;SDS011;11713;48.506;8.966;2022-08-05T10:39:02;2.47;;;2.28;;
23088;SDS011;11713;48.506;8.966;2022-08-05T10:41:36;2.08;;;1.90;;
23088;SDS011;11713;48.506;8.966;2022-08-05T10:44:11;2.75;;;2.50;;
23088;SDS011;11713;48.506;8.966;2022-08-05T10:46:43;4.60;;;2.58;;
23088;SDS011;11713;48.506;8.966;2022-08-05T10:49:11;2.38;;;2.08;;
23088;SDS011;11713;48.506;8.966;2022-08-05T10:51:42;2.22;;;2.13;;
23088;SDS011;11713;48.506;8.966;2022-08-05T10:54:09;3.92;;;2.30;;
23088;SDS011;11713;48.506;8.966;2022-08-05T10:56:51;2.55;;;2.08;;
23088;SDS011;11713;48.506;8.966;2022-08-05T10:59:24;2.50;;;2.30;;
23088;SDS011;11713;48.506;8.966;2022-08-05T11:02:10;4.03;;;2.28;;
23088;SDS011;11713;48.506;8.966;2022-08-05T11:04:44;2.50;;;2.30;;
23088;SDS011;11713;48.506;8.966;2022-08-05T11:07:11;3.65;;;2.10;;
23088;SDS011;11713;48.506;8.966;2022-08-05T11:09:44;2.35;;;1.90;;
23088;SDS011;11713;48.506;8.966;2022-08-05T11:15:18;2.72;;;1.95;;
23088;SDS011;11713;48.506;8.966;2022-08-05T11:17:47;2.75;;;2.30;;
23088;SDS011;11713;48.506;8.966;2022-08-05T11:23:27;1.95;;;1.85;;
23088;SDS011;11713;48.506;8.966;2022-08-05T11:26:10;2.28;;;2.08;;
23088;SDS011;11713;48.506;8.966;2022-08-05T11:28:50;2.85;;;2.10;;
23088;SDS011;11713;48.506;8.966;2022-08-05T11:36:16;2.50;;;2.30;;
23088;SDS011;11713;48.506;8.966;2022-08-05T11:41:16;2.40;;;2.20;;
23088;SDS011;11713;48.506;8.966;2022-08-05T11:46:41;2.20;;;2.00;;
23088;SDS011;11713;48.506;8.966;2022-08-05T11:49:12;3.05;;;2.10;;
23088;SDS011;11713;48.506;8.966;2022-08-05T11:51:40;2.47;;;2.20;;
23088;SDS011;11713;48.506;8.966;2022-08-05T11:54:19;2.22;;;2.13;;
23088;SDS011;11713;48.506;8.966;2022-08-05T11:56:52;2.20;;;2.00;;
23088;SDS011;11713;48.506;8.966;2022-08-05T11:59:22;2.53;;;2.33;;
23088;SDS011;11713;48.506;8.966;2022-08-05T12:04:25;2.38;;;2.17;;
23088;SDS011;11713;48.506;8.966;2022-08-05T12:07:05;2.67;;;2.30;;
23088;SDS011;11713;48.506;8.966;2022-08-05T12:09:39;2.38;;;2.10;;
23088;SDS011;11713;48.506;8.966;2022-08-05T12:12:08;2.63;;;2.42;;
23088;SDS011;11713;48.506;8.966;2022-08-05T12:14:41;2.50;;;2.30;;
23088;SDS011;11713;48.506;8.966;2022-08-05T12:17:08;2.42;;;2.22;;
23088;SDS011;11713;48.506;8.966;2022-08-05T12:22:18;2.58;;;2.10;;
23088;SDS011;11713;48.506;8.966;2022-08-05T12:24:47;2.75;;;2.38;;
23088;SDS011;11713;48.506;8.966;2022-08-05T12:27:26;2.50;;;2.30;;
23088;SDS011;11713;48.506;8.966;2022-08-05T12:30:00;3.80;;;2.40;;
23088;SDS011;11713;48.506;8.966;2022-08-05T12:32:30;3.03;;;2.22;;
23088;SDS011;11713;48.506;8.966;2022-08-05T12:34:57;2.40;;;2.20;;
23088;SDS011;11713;48.506;8.966;2022-08-05T12:37:23;3.47;;;2.60;;
23088;SDS011;11713;48.506;8.966;2022-08-05T12:39:50;2.20;;;2.10;;
23088;SDS011;11713;48.506;8.966;2022-08-05T12:42:19;2.10;;;2.00;;
23088;SDS011;11713;48.506;8.966;2022-08-05T12:44:46;2.92;;;2.58;;
23088;SDS011;11713;48.506;8.966;2022-08-05T12:47:12;2.95;;;2.10;;
23088;SDS011;11713;48.506;8.966;2022-08-05T12:49:42;2.20;;;2.10;;
23088;SDS011;11713;48.506;8.966;2022-08-05T12:52:10;3.28;;;2.22;;
23088;SDS011;11713;48.506;8.966;2022-08-05T12:54:42;2.55;;;2.35;;
23088;SDS011;11713;48.506;8.966;2022-08-05T12:57:09;2.50;;;2.30;;
23088;SDS011;11713;48.506;8.966;2022-08-05T12:59:44;3.33;;;2.33;;
23088;SDS011;11713;48.506;8.966;2022-08-05T13:02:20;2.80;;;2.28;;
23088;SDS011;11713;48.506;8.966;2022-08-05T13:04:51;2.72;;;2.30;;
23088;SDS011;11713;48.506;8.966;2022-08-05T13:07:18;2.55;;;2.40;;
23088;SDS011;11713;48.506;8.966;2022-08-05T13:09:49;2.92;;;2.60;;
23088;SDS011;11713;48.506;8.966;2022-08-05T13:12:17;2.67;;;2.47;;
23088;SDS011;11713;48.506;8.966;2022-08-05T13:14:45;2.30;;;2.20;;
23088;SDS011;11713;48.506;8.966;2022-08-05T13:19:42;3.28;;;2.50;;
23088;SDS011;11713;48.506;8.966;2022-08-05T13:22:33;3.00;;;2.20;;
23088;SDS011;11713;48.506;8.966;2022-08-05T13:25:02;3.17;;;2.20;;
23088;SDS011;11713;48.506;8.966;2022-08-05T13:27:30;2.60;;;2.40;;
23088;SDS011;11713;48.506;8.966;2022-08-05T13:29:58;2.47;;;2.38;;
23088;SDS011;11713;48.506;8.966;2022-08-05T13:32:24;4.10;;;2.30;;
23088;SDS011;11713;48.506;8.966;2022-08-05T13:34:52;2.85;;;2.50;;
23088;SDS011;11713;48.506;8.966;2022-08-05T13:37:18;4.22;;;2.60;;
23088;SDS011;11713;48.506;8.966;2022-08-05T13:39:46;2.50;;;2.30;;
23088;SDS011;11713;48.506;8.966;2022-08-05T13:42:13;2.50;;;2.30;;
23088;SDS011;11713;48.506;8.966;2022-08-05T13:44:39;2.45;;;2.20;;
23088;SDS011;11713;48.506;8.966;2022-08-05T13:47:04;3.33;;;2.42;;
23088;SDS011;11713;48.506;8.966;2022-08-05T13:49:30;3.00;;;2.65;;
23088;SDS011;11713;48.506;8.966;2022-08-05T13:51:56;2.53;;;2.33;;
23088;SDS011;11713;48.506;8.966;2022-08-05T13:54:33;4.65;;;2.65;;
23088;SDS011;11713;48.506;8.966;2022-08-05T13:56:58;3.47;;;2.40;;
23088;SDS011;11713;48.506;8.966;2022-08-05T13:59:24;2.90;;;2.70;;
23088;SDS011;11713;48.506;8.966;2022-08-05T14:01:51;4.00;;;2.58;;
23088;SDS011;11713;48.506;8.966;2022-08-05T14:04:18;2.70;;;2.50;;
23088;SDS011;11713;48.506;8.966;2022-08-05T14:07:02;2.63;;;2.42;;
23088;SDS011;11713;48.506;8.966;2022-08-05T14:09:28;2.70;;;2.50;;
23088;SDS011;11713;48.506;8.966;2022-08-05T14:11:53;3.33;;;2.63;;
23088;SDS011;11713;48.506;8.966;2022-08-05T14:14:19;2.88;;;2.65;;
23088;SDS011;11713;48.506;8.966;2022-08-05T14:16:45;2.75;;;2.40;;
23088;SDS011;11713;48.506;8.966;2022-08-05T14:19:15;2.88;;;2.60;;
23088;SDS011;11713;48.506;8.966;2022-08-05T14:21:41;2.80;;;2.60;;
23088;SDS011;11713;48.506;8.966;2022-08-05T14:24:07;2.72;;;2.40;;
23088;SDS011;11713;48.506;8.966;2022-08-05T14:26:38;3.70;;;2.63;;
23088;SDS011;11713;48.506;8.966;2022-08-05T14:29:04;5.20;;;2.80;;
23088;SDS011;11713;48.506;8.966;2022-08-05T14:31:30;8.65;;;3.28;;
23088;SDS011;11713;48.506;8.966;2022-08-05T14:33:56;10.30;;;4.22;;
23088;SDS011;11713;48.506;8.966;2022-08-05T14:36:22;6.50;;;4.00;;
23088;SDS011;11713;48.506;8.966;2022-08-05T14:38:49;6.50;;;3.58;;
23088;SDS011;11713;48.506;8.966;2022-08-05T14:41:15;9.18;;;4.15;;
23088;SDS011;11713;48.506;8.966;2022-08-05T14:43:41;8.43;;;3.75;;
23088;SDS011;11713;48.506;8.966;2022-08-05T14:46:07;5.93;;;3.80;;
23088;SDS011;11713;48.506;8.966;2022-08-05T14:48:33;4.25;;;3.58;;
23088;SDS011;11713;48.506;8.966;2022-08-05T14:50:58;7.38;;;3.42;;
23088;SDS011;11713;48.506;8.966;2022-08-05T14:53:24;4.13;;;2.90;;
23088;SDS011;11713;48.506;8.966;2022-08-05T14:55:50;6.78;;;3.38;;
23088;SDS011;11713;48.506;8.966;2022-08-05T14:58:16;6.75;;;2.90;;
23088;SDS011;11713;48.506;8.966;2022-08-05T15:00:42;4.40;;;2.90;;
23088;SDS011;11713;48.506;8.966;2022-08-05T15:03:07;5.55;;;3.35;;
23088;SDS011;11713;48.506;8.966;2022-08-05T15:05:33;4.70;;;3.38;;
23088;SDS011;11713;48.506;8.966;2022-08-05T15:08:00;4.85;;;3.25;;
23088;SDS011;11713;48.506;8.966;2022-08-05T15:10:26;6.03;;;3.08;;
23088;SDS011;11713;48.506;8.966;2022-08-05T15:12:52;2.97;;;2.78;;
23088;SDS011;11713;48.506;8.966;2022-08-05T15:15:18;3.03;;;2.72;;
23088;SDS011;11713;48.506;8.966;2022-08-05T15:17:44;4.45;;;3.10;;
23088;SDS011;11713;48.506;8.966;2022-08-05T15:20:10;5.60;;;3.00;;
23088;SDS011;11713;48.506;8.966;2022-08-05T15:22:37;3.20;;;2.88;;
23088;SDS011;11713;48.506;8.966;2022-08-05T15:25:03;4.03;;;3.10;;
23088;SDS011;11713;48.506;8.966;2022-08-05T15:27:30;3.75;;;3.20;;
23088;SDS011;11713;48.506;8.966;2022-08-05T15:29:56;3.72;;;2.60;;
23088;SDS011;11713;48.506;8.966;2022-08-05T15:32:23;3.38;;;3.08;;
23088;SDS011;11713;48.506;8.966;2022-08-05T15:34:49;3.92;;;3.03;;
23088;SDS011;11713;48.506;8.966;2022-08-05T15:37:15;4.32;;;2.67;;
23088;SDS011;11713;48.506;8.966;2022-08-05T15:39:41;4.20;;;2.88;;
23088;SDS011;11713;48.506;8.966;2022-08-05T15:42:07;4.03;;;2.55;;
23088;SDS011;11713;48.506;8.966;2022-08-05T15:44:38;4.57;;;2.63;;